Airfield :
LOGIN :

Register | Disclaimer

   EN    FR    IT 

 










Legend :    VFR   Marginal VFR   IFR   Intensive IFR   Very Intensive IFR
Visi :
Ceiling :
>= 8 km
>= 3000ft
5 to 8 km
1000 to 3000 ft
1500m to 5 km
500 to 1000 ft
800 to 1500m
200 to 500 ft
< 800m
< 200 ft
Symbols :   Thunderstorms  Fog  Heavy snow  Heavy precipitations  Wind > 20 kt
SIGMETs :     Misc.  Thunderstorms  Icing  Turbulence  Mountain Waves  Volcanic Ashes






- Airport Elevation : 1197 ft
- IATA code : SPM


ETAD - Spangdahlem Ab

CURRENT METAR :
  • 172256Z AUTO 25005KT 9999 OVC010 02/01 A3021 RMK AO2 SLP241 T00150005 400281035 $

EXPIRED METARs :
  • 172226Z AUTO 24008KT 9999 OVC010 02/01 A3021 RMK AO2 SLP241 $
  • 172156Z AUTO 24006KT 9999 OVC009 02/01 A3021 RMK AO2 RAB29E39 SLP241 P0000 T00150009 $
  • 172139Z AUTO 23005KT 9999 OVC011 02/01 A3020 RMK AO2 RAB29E39 CIG 009 RWY05 SLP238 $
  • 172129Z AUTO 24005KT 9999 -RA OVC011 01/01 A3020 RMK AO2 RAB29 SLP238 $
  • 172056Z AUTO 24004KT 9000 BR BKN010 OVC014 01/01 A3020 RMK AO2 CIG 010V012 SLP239 60000 T00130009 52009 $
  • 172041Z AUTO 24006KT 9000 BR BKN012 OVC023 01/01 A3019 RMK AO2 CIG 010V014 SLP236 $
  • 172026Z AUTO 24006KT 9999 BKN009 OVC014 01/01 A3019 RMK AO2 SLP236 $
  • 171956Z AUTO 25004KT 9999 OVC012 01/01 A3019 RMK AO2 RAB08E17RAB41E53 SLP236 P0000 T00140010 $

TAF TAF ETAD
Valid from the 17 at 11:00 until the 18 at 17:00 UTC


171100Z 1711/1817 27006KT 3200 BR SCT003 BKN007 OVC018 620077 QNH3000INS
TEMPO 1711/1713 0800 -FZDZ -SN FZFG VV002 660007
BECMG 1712/1713 27006KT 6000 BR BKN018 OVC030 620186 QNH3002INS
BECMG 1718/1719 25006KT 3200 BR BKN003 OVC008 620037 QNH3014INS
BECMG 1803/1804 25006KT 1600 BR OVC002 620025 QNH3020INS
BECMG 1812/1813 23006KT 6000 BR BKN013 OVC018 620135 QNH3020INS TX01/1714Z TNM01/1806Z LAST NO AMDS AFT 1711 NEXT 1811



MET'MAP, your aeronautical weather chart ! - Copyright ORBIFLY December 2007 - Disclaimer

ORBIFLY MET'MAP TEAM :

Programming & Development : Alexandra Zaïnal
Concept & original design : Baudouin d'Aumeries
Assistance for programming : Marc-Olivier Méhu
Technical & hardware support : Manuel Goepfert

Contact : metmap@orbifly.com




SOURCES & CREDITS :

   NOAA